sensor_id;sensor_type;location;lat;lon;timestamp;temperature;humidity
5779;DHT22;2916;49.798;10.022;2024-03-07T00:02:14;4.20;1.00
5779;DHT22;2916;49.798;10.022;2024-03-07T00:04:44;4.20;1.00
5779;DHT22;2916;49.798;10.022;2024-03-07T00:07:11;4.10;1.00
5779;DHT22;2916;49.798;10.022;2024-03-07T00:09:38;4.10;1.00
5779;DHT22;2916;49.798;10.022;2024-03-07T00:12:05;4.00;1.00
5779;DHT22;2916;49.798;10.022;2024-03-07T00:14:33;4.00;1.00
5779;DHT22;2916;49.798;10.022;2024-03-07T00:17:02;3.90;1.00
5779;DHT22;2916;49.798;10.022;2024-03-07T00:19:29;3.80;1.00
5779;DHT22;2916;49.798;10.022;2024-03-07T00:21:58;3.70;1.00
5779;DHT22;2916;49.798;10.022;2024-03-07T00:24:25;3.70;1.00
5779;DHT22;2916;49.798;10.022;2024-03-07T00:26:53;3.70;1.00
5779;DHT22;2916;49.798;10.022;2024-03-07T00:29:20;3.70;1.00
5779;DHT22;2916;49.798;10.022;2024-03-07T00:31:47;3.70;1.00
5779;DHT22;2916;49.798;10.022;2024-03-07T00:34:14;3.60;1.00
5779;DHT22;2916;49.798;10.022;2024-03-07T00:36:42;3.60;1.00
5779;DHT22;2916;49.798;10.022;2024-03-07T00:39:10;3.50;1.00
5779;DHT22;2916;49.798;10.022;2024-03-07T00:41:38;3.50;1.00
5779;DHT22;2916;49.798;10.022;2024-03-07T00:44:05;3.40;1.00
5779;DHT22;2916;49.798;10.022;2024-03-07T00:46:34;3.40;1.00
5779;DHT22;2916;49.798;10.022;2024-03-07T00:49:01;3.40;1.00
5779;DHT22;2916;49.798;10.022;2024-03-07T00:51:28;3.30;1.00
5779;DHT22;2916;49.798;10.022;2024-03-07T00:53:55;3.30;1.00
5779;DHT22;2916;49.798;10.022;2024-03-07T00:56:24;3.30;1.00
5779;DHT22;2916;49.798;10.022;2024-03-07T00:58:51;3.20;1.00
5779;DHT22;2916;49.798;10.022;2024-03-07T01:01:18;3.20;1.00
5779;DHT22;2916;49.798;10.022;2024-03-07T01:03:45;3.20;1.00
5779;DHT22;2916;49.798;10.022;2024-03-07T01:06:12;3.10;1.00
5779;DHT22;2916;49.798;10.022;2024-03-07T01:08:39;3.10;1.00
5779;DHT22;2916;49.798;10.022;2024-03-07T01:11:07;3.00;1.00
5779;DHT22;2916;49.798;10.022;2024-03-07T01:13:39;3.00;1.00
5779;DHT22;2916;49.798;10.022;2024-03-07T01:16:06;3.00;1.00
5779;DHT22;2916;49.798;10.022;2024-03-07T01:18:33;2.90;1.00
5779;DHT22;2916;49.798;10.022;2024-03-07T01:21:01;2.90;1.00
5779;DHT22;2916;49.798;10.022;2024-03-07T01:23:28;2.80;1.00
5779;DHT22;2916;49.798;10.022;2024-03-07T01:25:55;2.80;1.00
5779;DHT22;2916;49.798;10.022;2024-03-07T01:28:23;2.70;1.00
5779;DHT22;2916;49.798;10.022;2024-03-07T01:30:51;2.70;1.00
5779;DHT22;2916;49.798;10.022;2024-03-07T01:33:19;2.60;1.00
5779;DHT22;2916;49.798;10.022;2024-03-07T01:35:46;2.50;1.00
5779;DHT22;2916;49.798;10.022;2024-03-07T01:38:13;2.50;1.00
5779;DHT22;2916;49.798;10.022;2024-03-07T01:40:40;2.50;1.00
5779;DHT22;2916;49.798;10.022;2024-03-07T01:43:07;2.50;1.00
5779;DHT22;2916;49.798;10.022;2024-03-07T01:45:34;2.50;1.00
5779;DHT22;2916;49.798;10.022;2024-03-07T01:48:05;2.50;1.00
5779;DHT22;2916;49.798;10.022;2024-03-07T01:50:32;2.40;1.00
5779;DHT22;2916;49.798;10.022;2024-03-07T01:53:00;2.30;1.00
5779;DHT22;2916;49.798;10.022;2024-03-07T01:55:27;2.40;1.00
5779;DHT22;2916;49.798;10.022;2024-03-07T01:57:56;2.40;2.80
5779;DHT22;2916;49.798;10.022;2024-03-07T02:00:23;2.30;2.90
5779;DHT22;2916;49.798;10.022;2024-03-07T02:02:50;2.30;5.20
5779;DHT22;2916;49.798;10.022;2024-03-07T02:05:20;2.30;7.40
5779;DHT22;2916;49.798;10.022;2024-03-07T02:07:47;2.30;8.70
5779;DHT22;2916;49.798;10.022;2024-03-07T02:10:15;2.30;9.00
5779;DHT22;2916;49.798;10.022;2024-03-07T02:12:43;2.30;11.40
5779;DHT22;2916;49.798;10.022;2024-03-07T02:15:10;2.30;11.80
5779;DHT22;2916;49.798;10.022;2024-03-07T02:17:39;2.30;14.60
5779;DHT22;2916;49.798;10.022;2024-03-07T02:20:08;2.30;15.80
5779;DHT22;2916;49.798;10.022;2024-03-07T02:22:37;2.40;17.80
5779;DHT22;2916;49.798;10.022;2024-03-07T02:25:05;2.40;17.00
5779;DHT22;2916;49.798;10.022;2024-03-07T02:27:35;2.50;16.30
5779;DHT22;2916;49.798;10.022;2024-03-07T02:30:02;2.50;14.90
5779;DHT22;2916;49.798;10.022;2024-03-07T02:32:31;2.60;16.30
5779;DHT22;2916;49.798;10.022;2024-03-07T02:34:58;2.60;17.90
5779;DHT22;2916;49.798;10.022;2024-03-07T02:37:25;2.70;19.00
5779;DHT22;2916;49.798;10.022;2024-03-07T02:39:53;2.70;18.80
5779;DHT22;2916;49.798;10.022;2024-03-07T02:42:20;2.80;16.70
5779;DHT22;2916;49.798;10.022;2024-03-07T02:44:47;2.80;16.80
5779;DHT22;2916;49.798;10.022;2024-03-07T02:47:14;2.90;17.00
5779;DHT22;2916;49.798;10.022;2024-03-07T02:49:41;2.90;16.60
5779;DHT22;2916;49.798;10.022;2024-03-07T02:52:08;2.90;17.60
5779;DHT22;2916;49.798;10.022;2024-03-07T02:54:35;2.90;18.70
5779;DHT22;2916;49.798;10.022;2024-03-07T02:57:04;3.00;19.80
5779;DHT22;2916;49.798;10.022;2024-03-07T02:59:31;3.00;21.00
5779;DHT22;2916;49.798;10.022;2024-03-07T03:01:58;3.10;19.70
5779;DHT22;2916;49.798;10.022;2024-03-07T03:04:25;3.10;15.90
5779;DHT22;2916;49.798;10.022;2024-03-07T03:06:52;3.10;14.40
5779;DHT22;2916;49.798;10.022;2024-03-07T03:09:19;3.20;15.60
5779;DHT22;2916;49.798;10.022;2024-03-07T03:11:47;3.20;16.60
5779;DHT22;2916;49.798;10.022;2024-03-07T03:14:15;3.20;13.60
5779;DHT22;2916;49.798;10.022;2024-03-07T03:16:42;3.30;12.00
5779;DHT22;2916;49.798;10.022;2024-03-07T03:19:09;3.40;10.80
5779;DHT22;2916;49.798;10.022;2024-03-07T03:21:37;3.30;11.00
5779;DHT22;2916;49.798;10.022;2024-03-07T03:24:04;3.40;8.10
5779;DHT22;2916;49.798;10.022;2024-03-07T03:26:32;3.40;5.60
5779;DHT22;2916;49.798;10.022;2024-03-07T03:29:00;3.40;3.30
5779;DHT22;2916;49.798;10.022;2024-03-07T03:31:28;3.50;1.00
5779;DHT22;2916;49.798;10.022;2024-03-07T03:33:55;3.50;1.00
5779;DHT22;2916;49.798;10.022;2024-03-07T03:36:22;3.50;1.00
5779;DHT22;2916;49.798;10.022;2024-03-07T03:38:50;3.60;1.00
5779;DHT22;2916;49.798;10.022;2024-03-07T03:41:17;3.60;1.00
5779;DHT22;2916;49.798;10.022;2024-03-07T03:43:44;3.60;1.00
5779;DHT22;2916;49.798;10.022;2024-03-07T03:46:13;3.70;1.00
5779;DHT22;2916;49.798;10.022;2024-03-07T03:48:41;3.80;1.00
5779;DHT22;2916;49.798;10.022;2024-03-07T03:51:08;3.70;1.00
5779;DHT22;2916;49.798;10.022;2024-03-07T03:53:35;3.80;1.00
5779;DHT22;2916;49.798;10.022;2024-03-07T03:56:02;3.70;1.00
5779;DHT22;2916;49.798;10.022;2024-03-07T03:58:31;3.80;1.00
5779;DHT22;2916;49.798;10.022;2024-03-07T04:00:59;3.80;1.00
5779;DHT22;2916;49.798;10.022;2024-03-07T04:03:26;3.90;1.00
5779;DHT22;2916;49.798;10.022;2024-03-07T04:05:54;3.90;1.00
5779;DHT22;2916;49.798;10.022;2024-03-07T04:08:21;3.90;1.00
5779;DHT22;2916;49.798;10.022;2024-03-07T04:10:48;3.90;1.00
5779;DHT22;2916;49.798;10.022;2024-03-07T04:13:15;3.90;1.00
5779;DHT22;2916;49.798;10.022;2024-03-07T04:15:42;3.90;1.00
5779;DHT22;2916;49.798;10.022;2024-03-07T04:18:10;3.90;1.00
5779;DHT22;2916;49.798;10.022;2024-03-07T04:20:37;4.00;1.00
5779;DHT22;2916;49.798;10.022;2024-03-07T04:23:06;4.00;1.00
5779;DHT22;2916;49.798;10.022;2024-03-07T04:25:33;4.00;1.00
5779;DHT22;2916;49.798;10.022;2024-03-07T04:28:00;4.00;1.00
5779;DHT22;2916;49.798;10.022;2024-03-07T04:30:27;4.00;1.00
5779;DHT22;2916;49.798;10.022;2024-03-07T04:32:54;4.00;1.00
5779;DHT22;2916;49.798;10.022;2024-03-07T04:35:21;4.10;1.00
5779;DHT22;2916;49.798;10.022;2024-03-07T04:37:47;4.00;1.00
5779;DHT22;2916;49.798;10.022;2024-03-07T04:40:17;4.10;1.00
5779;DHT22;2916;49.798;10.022;2024-03-07T04:42:45;4.00;1.00
5779;DHT22;2916;49.798;10.022;2024-03-07T04:45:13;4.00;1.00
5779;DHT22;2916;49.798;10.022;2024-03-07T04:47:40;4.10;1.00
5779;DHT22;2916;49.798;10.022;2024-03-07T04:50:07;4.00;1.00
5779;DHT22;2916;49.798;10.022;2024-03-07T04:52:36;4.00;1.00
5779;DHT22;2916;49.798;10.022;2024-03-07T04:55:04;4.00;1.00
5779;DHT22;2916;49.798;10.022;2024-03-07T04:57:35;4.10;1.00
5779;DHT22;2916;49.798;10.022;2024-03-07T05:00:02;4.10;1.00
5779;DHT22;2916;49.798;10.022;2024-03-07T05:02:32;4.00;1.00
5779;DHT22;2916;49.798;10.022;2024-03-07T05:05:00;4.00;1.00
5779;DHT22;2916;49.798;10.022;2024-03-07T05:07:26;3.90;1.00
5779;DHT22;2916;49.798;10.022;2024-03-07T05:09:53;3.90;1.00
5779;DHT22;2916;49.798;10.022;2024-03-07T05:12:20;3.90;1.00
5779;DHT22;2916;49.798;10.022;2024-03-07T05:14:48;3.90;1.00
5779;DHT22;2916;49.798;10.022;2024-03-07T05:17:15;3.90;1.00
5779;DHT22;2916;49.798;10.022;2024-03-07T05:19:45;3.80;1.00
5779;DHT22;2916;49.798;10.022;2024-03-07T05:22:14;3.90;1.00
5779;DHT22;2916;49.798;10.022;2024-03-07T05:24:43;3.90;1.00
5779;DHT22;2916;49.798;10.022;2024-03-07T05:27:10;4.00;1.00
5779;DHT22;2916;49.798;10.022;2024-03-07T05:29:38;4.00;1.00
5779;DHT22;2916;49.798;10.022;2024-03-07T05:34:58;4.00;1.00
5779;DHT22;2916;49.798;10.022;2024-03-07T05:37:25;4.00;1.00
5779;DHT22;2916;49.798;10.022;2024-03-07T05:39:52;4.00;1.00
5779;DHT22;2916;49.798;10.022;2024-03-07T05:42:20;4.00;1.00
5779;DHT22;2916;49.798;10.022;2024-03-07T05:44:46;4.00;1.00
5779;DHT22;2916;49.798;10.022;2024-03-07T05:47:14;4.00;1.00
5779;DHT22;2916;49.798;10.022;2024-03-07T05:49:41;4.00;1.00
5779;DHT22;2916;49.798;10.022;2024-03-07T05:52:10;4.00;1.00
5779;DHT22;2916;49.798;10.022;2024-03-07T05:54:36;4.00;1.00
5779;DHT22;2916;49.798;10.022;2024-03-07T05:57:04;3.90;1.00
5779;DHT22;2916;49.798;10.022;2024-03-07T05:59:32;4.00;1.00
5779;DHT22;2916;49.798;10.022;2024-03-07T06:01:59;3.90;1.00
5779;DHT22;2916;49.798;10.022;2024-03-07T06:04:26;3.90;1.00
5779;DHT22;2916;49.798;10.022;2024-03-07T06:06:53;3.90;1.00
5779;DHT22;2916;49.798;10.022;2024-03-07T06:09:21;3.80;1.00
5779;DHT22;2916;49.798;10.022;2024-03-07T06:11:49;3.80;1.00
5779;DHT22;2916;49.798;10.022;2024-03-07T06:14:16;3.70;1.00
5779;DHT22;2916;49.798;10.022;2024-03-07T06:16:43;3.70;1.00
5779;DHT22;2916;49.798;10.022;2024-03-07T06:19:10;3.70;1.00
5779;DHT22;2916;49.798;10.022;2024-03-07T06:21:39;3.70;1.00
5779;DHT22;2916;49.798;10.022;2024-03-07T06:24:06;3.70;1.00
5779;DHT22;2916;49.798;10.022;2024-03-07T06:26:37;3.70;1.00
5779;DHT22;2916;49.798;10.022;2024-03-07T06:29:12;3.70;1.00
5779;DHT22;2916;49.798;10.022;2024-03-07T06:31:39;3.60;1.00
5779;DHT22;2916;49.798;10.022;2024-03-07T06:34:06;3.60;1.00
5779;DHT22;2916;49.798;10.022;2024-03-07T06:36:34;3.70;1.00
5779;DHT22;2916;49.798;10.022;2024-03-07T06:39:01;3.60;1.00
5779;DHT22;2916;49.798;10.022;2024-03-07T06:41:30;3.60;1.00
5779;DHT22;2916;49.798;10.022;2024-03-07T06:43:59;3.60;1.00
5779;DHT22;2916;49.798;10.022;2024-03-07T06:46:26;3.60;1.00
5779;DHT22;2916;49.798;10.022;2024-03-07T06:48:53;3.60;1.00
5779;DHT22;2916;49.798;10.022;2024-03-07T06:51:20;3.70;1.00
5779;DHT22;2916;49.798;10.022;2024-03-07T06:53:48;3.70;1.00
5779;DHT22;2916;49.798;10.022;2024-03-07T06:56:16;3.70;1.00
5779;DHT22;2916;49.798;10.022;2024-03-07T06:58:43;3.70;1.00
5779;DHT22;2916;49.798;10.022;2024-03-07T07:01:12;3.70;1.00
5779;DHT22;2916;49.798;10.022;2024-03-07T07:03:41;3.70;1.00
5779;DHT22;2916;49.798;10.022;2024-03-07T07:06:09;3.70;1.00
5779;DHT22;2916;49.798;10.022;2024-03-07T07:08:36;3.80;1.00
5779;DHT22;2916;49.798;10.022;2024-03-07T07:11:03;3.90;1.00
5779;DHT22;2916;49.798;10.022;2024-03-07T07:13:30;4.00;1.00
5779;DHT22;2916;49.798;10.022;2024-03-07T07:15:58;4.10;1.00
5779;DHT22;2916;49.798;10.022;2024-03-07T07:18:26;4.10;1.00
5779;DHT22;2916;49.798;10.022;2024-03-07T07:20:53;4.10;1.00
5779;DHT22;2916;49.798;10.022;2024-03-07T07:23:21;4.20;1.00
5779;DHT22;2916;49.798;10.022;2024-03-07T07:25:48;4.10;1.00
5779;DHT22;2916;49.798;10.022;2024-03-07T07:28:15;4.10;1.00
5779;DHT22;2916;49.798;10.022;2024-03-07T07:30:42;3.80;1.00
5779;DHT22;2916;49.798;10.022;2024-03-07T07:33:09;3.70;1.00
5779;DHT22;2916;49.798;10.022;2024-03-07T07:35:38;3.80;1.00
5779;DHT22;2916;49.798;10.022;2024-03-07T07:38:04;3.70;1.00
5779;DHT22;2916;49.798;10.022;2024-03-07T07:40:32;3.70;1.00
5779;DHT22;2916;49.798;10.022;2024-03-07T07:43:01;3.70;1.00
5779;DHT22;2916;49.798;10.022;2024-03-07T07:45:29;3.70;1.00
5779;DHT22;2916;49.798;10.022;2024-03-07T07:47:58;3.70;1.00
5779;DHT22;2916;49.798;10.022;2024-03-07T07:50:25;3.80;1.00
5779;DHT22;2916;49.798;10.022;2024-03-07T07:52:54;3.80;1.00
5779;DHT22;2916;49.798;10.022;2024-03-07T07:55:22;3.90;1.00
5779;DHT22;2916;49.798;10.022;2024-03-07T07:57:52;3.90;1.00
5779;DHT22;2916;49.798;10.022;2024-03-07T08:00:20;3.90;1.00
5779;DHT22;2916;49.798;10.022;2024-03-07T08:02:51;3.90;1.00
5779;DHT22;2916;49.798;10.022;2024-03-07T08:05:19;3.90;1.00
5779;DHT22;2916;49.798;10.022;2024-03-07T08:07:46;4.00;1.00
5779;DHT22;2916;49.798;10.022;2024-03-07T08:10:15;4.10;1.00
5779;DHT22;2916;49.798;10.022;2024-03-07T08:12:42;4.00;1.00
5779;DHT22;2916;49.798;10.022;2024-03-07T08:15:10;4.10;1.00
5779;DHT22;2916;49.798;10.022;2024-03-07T08:17:40;4.10;1.00
5779;DHT22;2916;49.798;10.022;2024-03-07T08:20:13;4.10;1.00
5779;DHT22;2916;49.798;10.022;2024-03-07T08:22:42;4.10;1.00
5779;DHT22;2916;49.798;10.022;2024-03-07T08:25:09;4.10;1.00
5779;DHT22;2916;49.798;10.022;2024-03-07T08:27:40;4.20;1.00
5779;DHT22;2916;49.798;10.022;2024-03-07T08:30:08;4.30;1.00
5779;DHT22;2916;49.798;10.022;2024-03-07T08:32:38;4.40;1.00
5779;DHT22;2916;49.798;10.022;2024-03-07T08:35:07;4.40;1.00
5779;DHT22;2916;49.798;10.022;2024-03-07T08:37:35;4.40;1.00
5779;DHT22;2916;49.798;10.022;2024-03-07T08:40:03;4.40;1.00
5779;DHT22;2916;49.798;10.022;2024-03-07T08:42:32;4.60;1.00
5779;DHT22;2916;49.798;10.022;2024-03-07T08:45:01;4.90;1.00
5779;DHT22;2916;49.798;10.022;2024-03-07T08:47:30;5.00;1.00
5779;DHT22;2916;49.798;10.022;2024-03-07T08:49:57;5.00;1.00
5779;DHT22;2916;49.798;10.022;2024-03-07T08:52:24;5.20;1.00
5779;DHT22;2916;49.798;10.022;2024-03-07T08:54:51;5.40;1.00
5779;DHT22;2916;49.798;10.022;2024-03-07T08:57:18;5.20;1.00
5779;DHT22;2916;49.798;10.022;2024-03-07T08:59:47;5.10;1.00
5779;DHT22;2916;49.798;10.022;2024-03-07T09:02:15;5.40;1.00
5779;DHT22;2916;49.798;10.022;2024-03-07T09:04:42;5.30;1.00
5779;DHT22;2916;49.798;10.022;2024-03-07T09:07:09;5.20;1.00
5779;DHT22;2916;49.798;10.022;2024-03-07T09:09:36;5.20;1.00
5779;DHT22;2916;49.798;10.022;2024-03-07T09:12:04;5.30;1.00
5779;DHT22;2916;49.798;10.022;2024-03-07T09:14:31;5.50;1.00
5779;DHT22;2916;49.798;10.022;2024-03-07T09:16:58;5.60;1.00
5779;DHT22;2916;49.798;10.022;2024-03-07T09:19:26;5.80;1.00
5779;DHT22;2916;49.798;10.022;2024-03-07T09:21:54;5.70;1.00
5779;DHT22;2916;49.798;10.022;2024-03-07T09:24:22;5.70;1.00
5779;DHT22;2916;49.798;10.022;2024-03-07T09:26:49;5.90;1.00
5779;DHT22;2916;49.798;10.022;2024-03-07T09:29:17;5.60;1.00
5779;DHT22;2916;49.798;10.022;2024-03-07T09:31:45;5.70;1.00
5779;DHT22;2916;49.798;10.022;2024-03-07T09:34:12;5.90;1.00
5779;DHT22;2916;49.798;10.022;2024-03-07T09:36:41;6.00;1.00
5779;DHT22;2916;49.798;10.022;2024-03-07T09:39:09;6.10;1.00
5779;DHT22;2916;49.798;10.022;2024-03-07T09:41:38;6.10;1.00
5779;DHT22;2916;49.798;10.022;2024-03-07T09:44:05;6.30;1.00
5779;DHT22;2916;49.798;10.022;2024-03-07T09:46:32;6.60;1.00
5779;DHT22;2916;49.798;10.022;2024-03-07T09:49:00;6.70;1.00
5779;DHT22;2916;49.798;10.022;2024-03-07T09:51:28;6.90;1.00
5779;DHT22;2916;49.798;10.022;2024-03-07T09:53:58;7.00;1.00
5779;DHT22;2916;49.798;10.022;2024-03-07T09:56:27;6.90;1.00
5779;DHT22;2916;49.798;10.022;2024-03-07T09:58:57;6.80;1.00
5779;DHT22;2916;49.798;10.022;2024-03-07T10:01:26;6.90;1.00
5779;DHT22;2916;49.798;10.022;2024-03-07T10:03:58;7.20;1.00
5779;DHT22;2916;49.798;10.022;2024-03-07T10:06:27;7.10;1.00
5779;DHT22;2916;49.798;10.022;2024-03-07T10:08:57;7.20;1.00
5779;DHT22;2916;49.798;10.022;2024-03-07T10:11:24;7.50;1.00
5779;DHT22;2916;49.798;10.022;2024-03-07T10:13:53;7.50;1.00
5779;DHT22;2916;49.798;10.022;2024-03-07T10:16:20;7.50;1.00
5779;DHT22;2916;49.798;10.022;2024-03-07T10:18:48;7.90;1.00
5779;DHT22;2916;49.798;10.022;2024-03-07T10:21:19;8.20;1.00
5779;DHT22;2916;49.798;10.022;2024-03-07T10:23:46;8.00;1.00
5779;DHT22;2916;49.798;10.022;2024-03-07T10:26:15;7.90;1.00
5779;DHT22;2916;49.798;10.022;2024-03-07T10:28:43;8.20;1.00
5779;DHT22;2916;49.798;10.022;2024-03-07T10:31:10;8.30;1.00
5779;DHT22;2916;49.798;10.022;2024-03-07T10:33:41;8.30;1.00
5779;DHT22;2916;49.798;10.022;2024-03-07T10:36:10;8.00;1.00
5779;DHT22;2916;49.798;10.022;2024-03-07T10:38:39;8.60;1.00
5779;DHT22;2916;49.798;10.022;2024-03-07T10:41:06;8.70;1.00
5779;DHT22;2916;49.798;10.022;2024-03-07T10:43:37;8.60;1.00
5779;DHT22;2916;49.798;10.022;2024-03-07T10:46:10;8.50;1.00
5779;DHT22;2916;49.798;10.022;2024-03-07T10:48:39;8.50;1.00
5779;DHT22;2916;49.798;10.022;2024-03-07T10:51:14;8.80;1.00
5779;DHT22;2916;49.798;10.022;2024-03-07T10:53:52;8.60;1.00
5779;DHT22;2916;49.798;10.022;2024-03-07T10:56:33;9.20;1.00
5779;DHT22;2916;49.798;10.022;2024-03-07T10:59:10;9.10;1.00
5779;DHT22;2916;49.798;10.022;2024-03-07T11:01:47;9.20;1.00
5779;DHT22;2916;49.798;10.022;2024-03-07T11:04:17;9.10;1.00
5779;DHT22;2916;49.798;10.022;2024-03-07T11:06:44;9.40;1.00
5779;DHT22;2916;49.798;10.022;2024-03-07T11:09:11;9.20;1.00
5779;DHT22;2916;49.798;10.022;2024-03-07T11:11:39;9.00;1.00
5779;DHT22;2916;49.798;10.022;2024-03-07T11:14:11;9.00;1.00
5779;DHT22;2916;49.798;10.022;2024-03-07T11:16:39;9.20;1.00
5779;DHT22;2916;49.798;10.022;2024-03-07T11:19:34;9.00;1.00
5779;DHT22;2916;49.798;10.022;2024-03-07T11:22:04;8.90;1.00
5779;DHT22;2916;49.798;10.022;2024-03-07T11:24:41;9.00;1.00
5779;DHT22;2916;49.798;10.022;2024-03-07T11:27:09;9.10;1.00
5779;DHT22;2916;49.798;10.022;2024-03-07T11:29:47;9.20;1.00
5779;DHT22;2916;49.798;10.022;2024-03-07T11:32:18;9.50;1.00
5779;DHT22;2916;49.798;10.022;2024-03-07T11:34:47;9.10;1.00
5779;DHT22;2916;49.798;10.022;2024-03-07T11:37:18;9.10;1.00
5779;DHT22;2916;49.798;10.022;2024-03-07T11:39:48;9.20;1.00
5779;DHT22;2916;49.798;10.022;2024-03-07T11:42:22;9.30;1.00
5779;DHT22;2916;49.798;10.022;2024-03-07T11:44:53;9.40;1.00
5779;DHT22;2916;49.798;10.022;2024-03-07T11:47:22;9.40;1.00
5779;DHT22;2916;49.798;10.022;2024-03-07T11:49:51;9.60;1.00
5779;DHT22;2916;49.798;10.022;2024-03-07T11:52:18;9.50;1.00
5779;DHT22;2916;49.798;10.022;2024-03-07T11:54:46;9.90;1.00
5779;DHT22;2916;49.798;10.022;2024-03-07T11:57:14;10.20;1.00
5779;DHT22;2916;49.798;10.022;2024-03-07T11:59:42;10.40;1.00
5779;DHT22;2916;49.798;10.022;2024-03-07T12:02:12;10.30;1.00
5779;DHT22;2916;49.798;10.022;2024-03-07T12:04:41;9.90;1.00
5779;DHT22;2916;49.798;10.022;2024-03-07T12:07:08;10.00;1.00
5779;DHT22;2916;49.798;10.022;2024-03-07T12:09:37;10.10;1.00
5779;DHT22;2916;49.798;10.022;2024-03-07T12:12:05;10.00;1.00
5779;DHT22;2916;49.798;10.022;2024-03-07T12:14:32;9.80;1.00
5779;DHT22;2916;49.798;10.022;2024-03-07T12:16:59;9.70;1.00
5779;DHT22;2916;49.798;10.022;2024-03-07T12:19:28;9.60;1.00
5779;DHT22;2916;49.798;10.022;2024-03-07T12:22:00;9.60;1.00
5779;DHT22;2916;49.798;10.022;2024-03-07T12:24:27;9.50;1.00
5779;DHT22;2916;49.798;10.022;2024-03-07T12:27:04;9.30;1.00
5779;DHT22;2916;49.798;10.022;2024-03-07T12:29:32;9.40;1.00
5779;DHT22;2916;49.798;10.022;2024-03-07T12:31:59;9.60;1.00
5779;DHT22;2916;49.798;10.022;2024-03-07T12:34:27;9.80;1.00
5779;DHT22;2916;49.798;10.022;2024-03-07T12:36:56;9.70;1.00
5779;DHT22;2916;49.798;10.022;2024-03-07T12:39:23;9.60;1.00
5779;DHT22;2916;49.798;10.022;2024-03-07T12:41:58;9.50;1.00
5779;DHT22;2916;49.798;10.022;2024-03-07T12:44:25;9.40;1.00
5779;DHT22;2916;49.798;10.022;2024-03-07T12:46:53;9.50;1.00
5779;DHT22;2916;49.798;10.022;2024-03-07T12:49:21;9.70;1.00
5779;DHT22;2916;49.798;10.022;2024-03-07T12:51:54;9.60;1.00
5779;DHT22;2916;49.798;10.022;2024-03-07T12:54:22;9.40;1.00
5779;DHT22;2916;49.798;10.022;2024-03-07T12:56:51;9.50;1.00
5779;DHT22;2916;49.798;10.022;2024-03-07T12:59:18;9.20;1.00
5779;DHT22;2916;49.798;10.022;2024-03-07T13:01:49;9.00;1.00
5779;DHT22;2916;49.798;10.022;2024-03-07T13:04:16;9.00;1.00
5779;DHT22;2916;49.798;10.022;2024-03-07T13:06:43;9.00;1.00
5779;DHT22;2916;49.798;10.022;2024-03-07T13:09:13;9.30;1.00
5779;DHT22;2916;49.798;10.022;2024-03-07T13:11:40;9.20;1.00
5779;DHT22;2916;49.798;10.022;2024-03-07T13:14:12;9.10;1.00
5779;DHT22;2916;49.798;10.022;2024-03-07T13:16:39;9.20;1.00
5779;DHT22;2916;49.798;10.022;2024-03-07T13:19:08;9.20;1.00
5779;DHT22;2916;49.798;10.022;2024-03-07T13:21:37;9.10;1.00
5779;DHT22;2916;49.798;10.022;2024-03-07T13:24:05;8.90;1.00
5779;DHT22;2916;49.798;10.022;2024-03-07T13:26:35;8.90;1.00
5779;DHT22;2916;49.798;10.022;2024-03-07T13:29:01;9.30;1.00
5779;DHT22;2916;49.798;10.022;2024-03-07T13:31:28;9.30;1.00
5779;DHT22;2916;49.798;10.022;2024-03-07T13:33:56;9.00;1.00
5779;DHT22;2916;49.798;10.022;2024-03-07T13:36:23;8.90;1.00
5779;DHT22;2916;49.798;10.022;2024-03-07T13:38:51;8.70;1.00
5779;DHT22;2916;49.798;10.022;2024-03-07T13:41:21;8.60;1.00
5779;DHT22;2916;49.798;10.022;2024-03-07T13:43:50;8.50;1.00
5779;DHT22;2916;49.798;10.022;2024-03-07T13:46:16;8.60;1.00
5779;DHT22;2916;49.798;10.022;2024-03-07T13:48:44;8.80;1.00
5779;DHT22;2916;49.798;10.022;2024-03-07T13:51:12;8.80;1.00
5779;DHT22;2916;49.798;10.022;2024-03-07T13:53:41;8.80;1.00
5779;DHT22;2916;49.798;10.022;2024-03-07T13:56:40;9.00;1.00
5779;DHT22;2916;49.798;10.022;2024-03-07T14:05:57;9.00;1.00
5779;DHT22;2916;49.798;10.022;2024-03-07T14:09:04;9.10;1.00
5779;DHT22;2916;49.798;10.022;2024-03-07T14:12:19;9.00;1.00
5779;DHT22;2916;49.798;10.022;2024-03-07T14:18:33;9.00;1.00
5779;DHT22;2916;49.798;10.022;2024-03-07T14:21:49;9.10;1.00
5779;DHT22;2916;49.798;10.022;2024-03-07T14:25:03;8.70;1.00
5779;DHT22;2916;49.798;10.022;2024-03-07T14:27:33;8.70;1.00
5779;DHT22;2916;49.798;10.022;2024-03-07T14:30:22;8.80;1.00
5779;DHT22;2916;49.798;10.022;2024-03-07T14:32:52;8.80;1.00
5779;DHT22;2916;49.798;10.022;2024-03-07T14:35:31;8.70;1.00
5779;DHT22;2916;49.798;10.022;2024-03-07T14:38:06;8.70;1.00
5779;DHT22;2916;49.798;10.022;2024-03-07T14:40:49;8.60;1.00
5779;DHT22;2916;49.798;10.022;2024-03-07T14:43:17;8.60;1.00
5779;DHT22;2916;49.798;10.022;2024-03-07T14:45:45;8.80;1.00
5779;DHT22;2916;49.798;10.022;2024-03-07T14:48:17;8.70;1.00
5779;DHT22;2916;49.798;10.022;2024-03-07T14:50:46;8.90;1.00
5779;DHT22;2916;49.798;10.022;2024-03-07T14:53:14;8.80;1.00
5779;DHT22;2916;49.798;10.022;2024-03-07T14:55:42;8.70;1.00
5779;DHT22;2916;49.798;10.022;2024-03-07T14:58:10;8.50;1.00
5779;DHT22;2916;49.798;10.022;2024-03-07T15:00:38;8.60;1.00
5779;DHT22;2916;49.798;10.022;2024-03-07T15:03:08;8.50;1.00
5779;DHT22;2916;49.798;10.022;2024-03-07T15:05:35;8.60;1.00
5779;DHT22;2916;49.798;10.022;2024-03-07T15:08:04;8.60;1.00
5779;DHT22;2916;49.798;10.022;2024-03-07T15:10:34;8.50;1.00
5779;DHT22;2916;49.798;10.022;2024-03-07T15:13:01;8.40;1.00
5779;DHT22;2916;49.798;10.022;2024-03-07T15:15:28;8.40;1.00
5779;DHT22;2916;49.798;10.022;2024-03-07T15:17:57;8.30;1.00
5779;DHT22;2916;49.798;10.022;2024-03-07T15:20:24;8.20;1.00
5779;DHT22;2916;49.798;10.022;2024-03-07T15:22:53;8.20;1.00
5779;DHT22;2916;49.798;10.022;2024-03-07T15:25:23;8.10;1.00
5779;DHT22;2916;49.798;10.022;2024-03-07T15:27:50;8.10;1.00
5779;DHT22;2916;49.798;10.022;2024-03-07T15:30:18;7.90;1.00
5779;DHT22;2916;49.798;10.022;2024-03-07T15:32:46;8.00;1.00
5779;DHT22;2916;49.798;10.022;2024-03-07T15:35:15;7.90;1.00
5779;DHT22;2916;49.798;10.022;2024-03-07T15:37:44;7.90;1.00
5779;DHT22;2916;49.798;10.022;2024-03-07T15:40:13;7.90;1.00
5779;DHT22;2916;49.798;10.022;2024-03-07T15:42:42;7.90;1.00
5779;DHT22;2916;49.798;10.022;2024-03-07T15:45:13;7.90;1.00
5779;DHT22;2916;49.798;10.022;2024-03-07T15:47:45;7.90;1.00
5779;DHT22;2916;49.798;10.022;2024-03-07T15:50:12;8.00;1.00
5779;DHT22;2916;49.798;10.022;2024-03-07T15:52:40;7.80;1.00
5779;DHT22;2916;49.798;10.022;2024-03-07T15:55:08;7.80;1.00
5779;DHT22;2916;49.798;10.022;2024-03-07T15:57:47;7.80;1.00
5779;DHT22;2916;49.798;10.022;2024-03-07T16:00:16;7.80;1.00
5779;DHT22;2916;49.798;10.022;2024-03-07T16:02:51;7.80;1.00
5779;DHT22;2916;49.798;10.022;2024-03-07T16:05:19;7.80;1.00
5779;DHT22;2916;49.798;10.022;2024-03-07T16:07:48;7.80;1.00
5779;DHT22;2916;49.798;10.022;2024-03-07T16:10:16;7.70;1.00
5779;DHT22;2916;49.798;10.022;2024-03-07T16:12:44;7.70;1.00
5779;DHT22;2916;49.798;10.022;2024-03-07T16:15:12;7.70;1.00
5779;DHT22;2916;49.798;10.022;2024-03-07T16:17:39;7.70;1.00
5779;DHT22;2916;49.798;10.022;2024-03-07T16:20:07;7.60;1.00
5779;DHT22;2916;49.798;10.022;2024-03-07T16:22:39;7.60;1.00
5779;DHT22;2916;49.798;10.022;2024-03-07T16:25:07;7.60;1.00
5779;DHT22;2916;49.798;10.022;2024-03-07T16:27:36;7.50;1.00
5779;DHT22;2916;49.798;10.022;2024-03-07T16:30:05;7.60;1.00
5779;DHT22;2916;49.798;10.022;2024-03-07T16:32:33;7.50;1.00
5779;DHT22;2916;49.798;10.022;2024-03-07T16:35:02;7.50;1.00
5779;DHT22;2916;49.798;10.022;2024-03-07T16:37:36;7.50;1.00
5779;DHT22;2916;49.798;10.022;2024-03-07T16:40:05;7.50;1.00
5779;DHT22;2916;49.798;10.022;2024-03-07T16:42:34;7.50;1.00